CST,Max TemperatureF,Mean TemperatureF,Min TemperatureF,Max Dew PointF,MeanDew PointF,Min DewpointF,Max Humidity, Mean Humidity, Min Humidity, Max Sea Level PressureIn, Mean Sea Level PressureIn, Min Sea Level PressureIn, Max VisibilityMiles, Mean VisibilityMiles, Min VisibilityMiles, Max Wind SpeedMPH, Mean Wind SpeedMPH, Max Gust SpeedMPH,PrecipitationIn, CloudCover, Events, WindDirDegrees
2013-1-1,15,8,0,9,0,-8,85,70,45,30.12,30.03,29.94,10,9,0,17,9,23,0.00,4,,246
2013-1-2,19,17,15,12,10,9,86,76,68,29.96,29.93,29.89,10,9,4,12,6,17,0.00,8,,211
2013-1-3,21,18,15,16,11,7,86,70,54,30.05,29.96,29.79,10,9,5,24,11,32,0.00,4,,247
2013-1-4,33,24,15,19,14,7,80,65,48,30.06,29.92,29.83,10,10,9,22,11,25,0.00,2,,262
2013-1-5,30,22,14,21,16,7,86,71,47,30.06,29.90,29.78,10,10,10,13,4,16,0.00,3,,157
2013-1-6,28,19,10,25,17,3,93,77,63,30.11,30.00,29.83,10,8,0,13,8,20,0.00,6,,324
2013-1-7,37,27,17,21,15,3,74,61,48,29.98,29.80,29.70,10,10,6,23,14,33,0.00,0,,214
2013-1-8,39,27,15,27,21,9,93,66,48,29.97,29.80,29.65,10,10,3,22,8,33,0.00,2,,185
2013-1-9,33,28,21,27,20,12,75,66,59,30.31,29.96,29.67,10,10,7,33,17,45,0.00,4,,255
2013-1-10,42,38,33,30,15,10,81,41,29,30.23,30.00,29.74,10,10,9,23,13,32,0.05,2,,159
2013-1-11,42,38,35,37,33,30,87,84,75,29.74,29.54,29.36,10,9,4,12,7,20,0.02,8,,170
2013-1-12,44,29,14,39,20,3,87,70,58,29.93,29.59,29.28,10,9,3,29,14,38,0.01,8,,229
2013-1-13,12,10,8,3,2,0,79,68,57,30.05,29.95,29.90,10,8,2,16,10,20,0.00,7,,259
2013-1-14,10,6,3,3,-1,-4,79,70,62,30.26,30.20,30.06,10,10,7,14,10,18,0.00,6,,233
2013-1-15,26,16,6,12,5,-4,79,61,40,30.23,30.02,29.72,10,10,10,21,9,30,0.00,3,,209
2013-1-16,26,17,8,21,12,-2,80,66,49,30.08,29.70,29.47,10,9,2,22,16,32,0.00,7,,277
2013-1-17,8,4,0,0,-4,-11,85,68,56,30.27,30.22,30.09,10,6,1,17,11,20,0.00,6,,262
2013-1-18,21,10,-2,16,7,-11,100,78,56,30.23,29.89,29.68,10,6,0,10,4,,0.00,7,,152
2013-1-19,33,19,5,27,15,-2,93,79,58,29.90,29.64,29.46,10,6,0,26,9,39,0.00,8,,262
2013-1-20,6,1,-4,0,-7,-13,78,71,60,30.16,30.09,29.92,10,5,0,20,15,30,0.00,6,,266
2013-1-21,-4,-9,-14,-9,-18,-22,84,70,59,30.09,30.05,30.01,10,3,0,23,17,29,0.00,8,,255
2013-1-22,0,-8,-16,-11,-17,-24,84,66,50,30.21,30.15,30.08,10,8,1,17,12,16,0.00,3,,251
2013-1-23,6,-2,-9,1,-7,-18,85,73,59,30.42,30.13,29.98,10,4,0,20,10,25,0.00,6,,273
2013-1-24,8,0,-5,1,-7,-17,92,69,56,30.56,30.43,30.15,10,7,0,10,5,18,0.00,5,,200
2013-1-25,15,12,8,10,5,0,86,73,62,30.12,29.96,29.84,10,6,1,16,9,22,0.00,8,,249
2013-1-26,19,14,8,10,6,1,85,71,58,30.29,30.20,30.13,10,8,2,14,7,17,0.00,7,,200
2013-1-27,33,25,17,27,16,9,86,67,51,30.14,29.99,29.82,10,8,1,13,7,20,0.00,7,,169
2013-1-28,35,30,24,27,25,19,93,84,69,29.85,29.80,29.70,10,6,0,8,2,,0.09,6,,129
2013-1-29,33,30,28,30,27,19,93,83,69,29.65,29.55,29.45,10,8,1,15,7,21,0.04,8,,296
2013-1-30,28,20,12,21,13,5,85,75,68,29.61,29.50,29.46,10,6,1,15,11,22,0.00,8,,347
2013-1-31,12,8,3,7,2,-4,85,75,67,29.98,29.73,29.51,8,2,0,21,11,26,0.00,8,,299